sensor_id;sensor_type;location;lat;lon;timestamp;P1;durP1;ratioP1;P2;durP2;ratioP2
59169;SDS011;52474;52.236;5.114;2023-12-07T00:02:20;37.92;;;19.20;;
59169;SDS011;52474;52.236;5.114;2023-12-07T00:04:45;40.92;;;19.80;;
59169;SDS011;52474;52.236;5.114;2023-12-07T00:07:11;43.90;;;21.67;;
59169;SDS011;52474;52.236;5.114;2023-12-07T00:09:37;53.10;;;22.05;;
59169;SDS011;52474;52.236;5.114;2023-12-07T00:12:02;101.25;;;24.13;;
59169;SDS011;52474;52.236;5.114;2023-12-07T00:14:28;52.17;;;22.95;;
59169;SDS011;52474;52.236;5.114;2023-12-07T00:16:54;65.90;;;22.35;;
59169;SDS011;52474;52.236;5.114;2023-12-07T00:19:19;55.20;;;22.83;;
59169;SDS011;52474;52.236;5.114;2023-12-07T00:21:45;40.75;;;20.30;;
59169;SDS011;52474;52.236;5.114;2023-12-07T00:24:11;38.80;;;19.63;;
59169;SDS011;52474;52.236;5.114;2023-12-07T00:26:36;38.05;;;21.50;;
59169;SDS011;52474;52.236;5.114;2023-12-07T00:29:03;37.55;;;18.67;;
59169;SDS011;52474;52.236;5.114;2023-12-07T00:31:29;33.97;;;18.67;;
59169;SDS011;52474;52.236;5.114;2023-12-07T00:33:54;42.67;;;18.85;;
59169;SDS011;52474;52.236;5.114;2023-12-07T00:36:20;41.50;;;19.30;;
59169;SDS011;52474;52.236;5.114;2023-12-07T00:38:45;35.50;;;18.65;;
59169;SDS011;52474;52.236;5.114;2023-12-07T00:41:11;36.08;;;18.92;;
59169;SDS011;52474;52.236;5.114;2023-12-07T00:43:37;37.40;;;19.48;;
59169;SDS011;52474;52.236;5.114;2023-12-07T00:46:02;38.17;;;18.90;;
59169;SDS011;52474;52.236;5.114;2023-12-07T00:48:28;35.72;;;18.13;;
59169;SDS011;52474;52.236;5.114;2023-12-07T00:50:53;38.97;;;18.95;;
59169;SDS011;52474;52.236;5.114;2023-12-07T00:53:19;39.45;;;19.02;;
59169;SDS011;52474;52.236;5.114;2023-12-07T00:55:45;37.33;;;18.58;;
59169;SDS011;52474;52.236;5.114;2023-12-07T00:58:10;40.47;;;19.77;;
59169;SDS011;52474;52.236;5.114;2023-12-07T01:00:36;36.40;;;19.25;;
59169;SDS011;52474;52.236;5.114;2023-12-07T01:03:02;34.13;;;17.77;;
59169;SDS011;52474;52.236;5.114;2023-12-07T01:05:28;33.40;;;17.30;;
59169;SDS011;52474;52.236;5.114;2023-12-07T01:07:53;33.80;;;16.23;;
59169;SDS011;52474;52.236;5.114;2023-12-07T01:10:19;32.25;;;16.45;;
59169;SDS011;52474;52.236;5.114;2023-12-07T01:12:44;33.72;;;17.55;;
59169;SDS011;52474;52.236;5.114;2023-12-07T01:15:10;33.03;;;17.25;;
59169;SDS011;52474;52.236;5.114;2023-12-07T01:17:36;33.55;;;16.90;;
59169;SDS011;52474;52.236;5.114;2023-12-07T01:20:01;34.35;;;16.60;;
59169;SDS011;52474;52.236;5.114;2023-12-07T01:22:29;33.17;;;17.30;;
59169;SDS011;52474;52.236;5.114;2023-12-07T01:24:54;30.58;;;16.60;;
59169;SDS011;52474;52.236;5.114;2023-12-07T01:27:20;34.67;;;16.83;;
59169;SDS011;52474;52.236;5.114;2023-12-07T01:29:46;32.83;;;16.58;;
59169;SDS011;52474;52.236;5.114;2023-12-07T01:32:11;30.73;;;16.23;;
59169;SDS011;52474;52.236;5.114;2023-12-07T01:34:37;29.75;;;16.13;;
59169;SDS011;52474;52.236;5.114;2023-12-07T01:37:02;37.83;;;18.42;;
59169;SDS011;52474;52.236;5.114;2023-12-07T01:39:28;36.45;;;17.00;;
59169;SDS011;52474;52.236;5.114;2023-12-07T01:41:54;36.55;;;16.63;;
59169;SDS011;52474;52.236;5.114;2023-12-07T01:44:19;31.45;;;17.35;;
59169;SDS011;52474;52.236;5.114;2023-12-07T01:46:45;36.17;;;16.75;;
59169;SDS011;52474;52.236;5.114;2023-12-07T01:49:10;31.42;;;16.85;;
59169;SDS011;52474;52.236;5.114;2023-12-07T01:51:36;35.28;;;17.45;;
59169;SDS011;52474;52.236;5.114;2023-12-07T01:54:02;32.50;;;17.42;;
59169;SDS011;52474;52.236;5.114;2023-12-07T01:56:29;33.53;;;17.52;;
59169;SDS011;52474;52.236;5.114;2023-12-07T01:58:55;34.17;;;16.08;;
59169;SDS011;52474;52.236;5.114;2023-12-07T02:01:21;38.13;;;18.27;;
59169;SDS011;52474;52.236;5.114;2023-12-07T02:03:47;31.70;;;16.50;;
59169;SDS011;52474;52.236;5.114;2023-12-07T02:06:12;34.70;;;17.30;;
59169;SDS011;52474;52.236;5.114;2023-12-07T02:08:39;36.38;;;17.60;;
59169;SDS011;52474;52.236;5.114;2023-12-07T02:11:07;36.90;;;18.40;;
59169;SDS011;52474;52.236;5.114;2023-12-07T02:13:34;44.75;;;17.35;;
59169;SDS011;52474;52.236;5.114;2023-12-07T02:16:08;33.13;;;17.02;;
59169;SDS011;52474;52.236;5.114;2023-12-07T02:18:40;30.52;;;16.48;;
59169;SDS011;52474;52.236;5.114;2023-12-07T02:21:25;32.80;;;16.35;;
59169;SDS011;52474;52.236;5.114;2023-12-07T02:23:57;30.73;;;16.48;;
59169;SDS011;52474;52.236;5.114;2023-12-07T02:26:29;33.03;;;16.73;;
59169;SDS011;52474;52.236;5.114;2023-12-07T02:28:57;30.83;;;15.10;;
59169;SDS011;52474;52.236;5.114;2023-12-07T02:31:22;32.70;;;16.98;;
59169;SDS011;52474;52.236;5.114;2023-12-07T02:33:48;33.50;;;16.55;;
59169;SDS011;52474;52.236;5.114;2023-12-07T02:36:14;32.05;;;16.20;;
59169;SDS011;52474;52.236;5.114;2023-12-07T02:38:44;30.27;;;16.13;;
59169;SDS011;52474;52.236;5.114;2023-12-07T02:41:11;31.05;;;15.98;;
59169;SDS011;52474;52.236;5.114;2023-12-07T02:43:37;36.67;;;16.10;;
59169;SDS011;52474;52.236;5.114;2023-12-07T02:46:03;33.80;;;16.80;;
59169;SDS011;52474;52.236;5.114;2023-12-07T02:48:29;33.30;;;15.88;;
59169;SDS011;52474;52.236;5.114;2023-12-07T02:50:55;30.45;;;15.85;;
59169;SDS011;52474;52.236;5.114;2023-12-07T02:53:21;31.65;;;15.82;;
59169;SDS011;52474;52.236;5.114;2023-12-07T02:55:46;35.22;;;16.63;;
59169;SDS011;52474;52.236;5.114;2023-12-07T02:58:12;35.63;;;16.42;;
59169;SDS011;52474;52.236;5.114;2023-12-07T03:00:38;32.80;;;16.02;;
59169;SDS011;52474;52.236;5.114;2023-12-07T03:03:03;34.35;;;15.88;;
59169;SDS011;52474;52.236;5.114;2023-12-07T03:05:29;34.53;;;15.65;;
59169;SDS011;52474;52.236;5.114;2023-12-07T03:07:55;30.75;;;15.38;;
59169;SDS011;52474;52.236;5.114;2023-12-07T03:10:20;29.05;;;15.02;;
59169;SDS011;52474;52.236;5.114;2023-12-07T03:12:46;26.90;;;14.25;;
59169;SDS011;52474;52.236;5.114;2023-12-07T03:15:11;29.80;;;15.23;;
59169;SDS011;52474;52.236;5.114;2023-12-07T03:17:38;32.63;;;15.15;;
59169;SDS011;52474;52.236;5.114;2023-12-07T03:20:04;31.67;;;14.93;;
59169;SDS011;52474;52.236;5.114;2023-12-07T03:22:30;28.27;;;14.02;;
59169;SDS011;52474;52.236;5.114;2023-12-07T03:24:56;27.83;;;13.90;;
59169;SDS011;52474;52.236;5.114;2023-12-07T03:27:22;29.23;;;14.65;;
59169;SDS011;52474;52.236;5.114;2023-12-07T03:29:48;31.42;;;14.25;;
59169;SDS011;52474;52.236;5.114;2023-12-07T03:32:13;29.60;;;14.70;;
59169;SDS011;52474;52.236;5.114;2023-12-07T03:34:39;31.38;;;13.85;;
59169;SDS011;52474;52.236;5.114;2023-12-07T03:37:04;28.50;;;14.68;;
59169;SDS011;52474;52.236;5.114;2023-12-07T03:39:30;30.33;;;14.60;;
59169;SDS011;52474;52.236;5.114;2023-12-07T03:41:57;29.38;;;13.55;;
59169;SDS011;52474;52.236;5.114;2023-12-07T03:44:23;29.55;;;13.98;;
59169;SDS011;52474;52.236;5.114;2023-12-07T03:46:52;32.75;;;14.55;;
59169;SDS011;52474;52.236;5.114;2023-12-07T03:49:18;29.45;;;13.80;;
59169;SDS011;52474;52.236;5.114;2023-12-07T03:51:44;29.63;;;14.68;;
59169;SDS011;52474;52.236;5.114;2023-12-07T03:54:09;27.33;;;13.57;;
59169;SDS011;52474;52.236;5.114;2023-12-07T03:56:35;31.63;;;14.70;;
59169;SDS011;52474;52.236;5.114;2023-12-07T03:59:00;28.20;;;13.65;;
59169;SDS011;52474;52.236;5.114;2023-12-07T04:01:27;27.45;;;13.70;;
59169;SDS011;52474;52.236;5.114;2023-12-07T04:03:55;28.05;;;14.15;;
59169;SDS011;52474;52.236;5.114;2023-12-07T04:06:22;26.15;;;13.35;;
59169;SDS011;52474;52.236;5.114;2023-12-07T04:08:48;28.92;;;14.10;;
59169;SDS011;52474;52.236;5.114;2023-12-07T04:11:14;28.90;;;13.65;;
59169;SDS011;52474;52.236;5.114;2023-12-07T04:13:40;33.17;;;15.80;;
59169;SDS011;52474;52.236;5.114;2023-12-07T04:16:07;29.77;;;13.77;;
59169;SDS011;52474;52.236;5.114;2023-12-07T04:18:33;34.83;;;14.65;;
59169;SDS011;52474;52.236;5.114;2023-12-07T04:20:59;29.60;;;14.07;;
59169;SDS011;52474;52.236;5.114;2023-12-07T04:23:24;29.98;;;14.07;;
59169;SDS011;52474;52.236;5.114;2023-12-07T04:25:50;31.65;;;14.82;;
59169;SDS011;52474;52.236;5.114;2023-12-07T04:28:16;32.42;;;15.30;;
59169;SDS011;52474;52.236;5.114;2023-12-07T04:30:42;28.13;;;14.45;;
59169;SDS011;52474;52.236;5.114;2023-12-07T04:33:07;30.83;;;15.07;;
59169;SDS011;52474;52.236;5.114;2023-12-07T04:35:34;32.67;;;15.50;;
59169;SDS011;52474;52.236;5.114;2023-12-07T04:37:59;28.45;;;15.13;;
59169;SDS011;52474;52.236;5.114;2023-12-07T04:40:25;29.30;;;13.52;;
59169;SDS011;52474;52.236;5.114;2023-12-07T04:42:51;30.75;;;14.25;;
59169;SDS011;52474;52.236;5.114;2023-12-07T04:45:17;34.22;;;14.95;;
59169;SDS011;52474;52.236;5.114;2023-12-07T04:47:43;29.67;;;13.55;;
59169;SDS011;52474;52.236;5.114;2023-12-07T04:50:08;28.85;;;13.52;;
59169;SDS011;52474;52.236;5.114;2023-12-07T04:52:35;30.08;;;14.35;;
59169;SDS011;52474;52.236;5.114;2023-12-07T04:55:01;29.88;;;14.85;;
59169;SDS011;52474;52.236;5.114;2023-12-07T04:57:27;33.55;;;14.43;;
59169;SDS011;52474;52.236;5.114;2023-12-07T04:59:52;27.92;;;14.27;;
59169;SDS011;52474;52.236;5.114;2023-12-07T05:02:18;31.40;;;14.25;;
59169;SDS011;52474;52.236;5.114;2023-12-07T05:04:44;36.47;;;15.25;;
59169;SDS011;52474;52.236;5.114;2023-12-07T05:07:13;36.17;;;16.08;;
59169;SDS011;52474;52.236;5.114;2023-12-07T05:09:39;43.53;;;17.70;;
59169;SDS011;52474;52.236;5.114;2023-12-07T05:12:06;44.45;;;16.17;;
59169;SDS011;52474;52.236;5.114;2023-12-07T05:14:32;42.72;;;17.45;;
59169;SDS011;52474;52.236;5.114;2023-12-07T05:16:57;34.42;;;15.15;;
59169;SDS011;52474;52.236;5.114;2023-12-07T05:19:23;40.22;;;17.35;;
59169;SDS011;52474;52.236;5.114;2023-12-07T05:21:50;58.20;;;17.10;;
59169;SDS011;52474;52.236;5.114;2023-12-07T05:24:16;89.40;;;21.25;;
59169;SDS011;52474;52.236;5.114;2023-12-07T05:26:43;92.03;;;20.00;;
59169;SDS011;52474;52.236;5.114;2023-12-07T05:29:11;59.72;;;19.27;;
59169;SDS011;52474;52.236;5.114;2023-12-07T05:31:37;44.45;;;17.23;;
59169;SDS011;52474;52.236;5.114;2023-12-07T05:34:03;106.32;;;21.38;;
59169;SDS011;52474;52.236;5.114;2023-12-07T05:36:29;40.47;;;18.50;;
59169;SDS011;52474;52.236;5.114;2023-12-07T05:38:54;39.40;;;17.00;;
59169;SDS011;52474;52.236;5.114;2023-12-07T05:41:20;37.25;;;17.40;;
59169;SDS011;52474;52.236;5.114;2023-12-07T05:43:46;44.88;;;19.55;;
59169;SDS011;52474;52.236;5.114;2023-12-07T05:46:11;76.25;;;20.63;;
59169;SDS011;52474;52.236;5.114;2023-12-07T05:48:37;73.28;;;23.63;;
59169;SDS011;52474;52.236;5.114;2023-12-07T05:51:03;39.47;;;15.82;;
59169;SDS011;52474;52.236;5.114;2023-12-07T05:53:29;84.35;;;20.92;;
59169;SDS011;52474;52.236;5.114;2023-12-07T05:55:58;142.63;;;24.23;;
59169;SDS011;52474;52.236;5.114;2023-12-07T05:58:24;95.95;;;19.88;;
59169;SDS011;52474;52.236;5.114;2023-12-07T06:00:49;114.53;;;24.42;;
59169;SDS011;52474;52.236;5.114;2023-12-07T06:03:15;110.03;;;22.65;;
59169;SDS011;52474;52.236;5.114;2023-12-07T06:05:41;130.82;;;23.38;;
59169;SDS011;52474;52.236;5.114;2023-12-07T06:08:08;128.02;;;26.60;;
59169;SDS011;52474;52.236;5.114;2023-12-07T06:10:34;164.10;;;28.60;;
59169;SDS011;52474;52.236;5.114;2023-12-07T06:13:01;191.18;;;29.10;;
59169;SDS011;52474;52.236;5.114;2023-12-07T06:15:27;179.40;;;33.08;;
59169;SDS011;52474;52.236;5.114;2023-12-07T06:17:55;105.03;;;20.30;;
59169;SDS011;52474;52.236;5.114;2023-12-07T06:22:48;167.73;;;26.30;;
59169;SDS011;52474;52.236;5.114;2023-12-07T06:25:14;152.15;;;29.58;;
59169;SDS011;52474;52.236;5.114;2023-12-07T06:27:40;178.35;;;30.85;;
59169;SDS011;52474;52.236;5.114;2023-12-07T06:30:06;188.05;;;31.13;;
59169;SDS011;52474;52.236;5.114;2023-12-07T06:32:32;148.77;;;25.45;;
59169;SDS011;52474;52.236;5.114;2023-12-07T06:34:58;196.30;;;33.38;;
59169;SDS011;52474;52.236;5.114;2023-12-07T06:37:24;162.43;;;28.58;;
59169;SDS011;52474;52.236;5.114;2023-12-07T06:39:49;168.18;;;28.48;;
59169;SDS011;52474;52.236;5.114;2023-12-07T06:42:15;190.40;;;30.77;;
59169;SDS011;52474;52.236;5.114;2023-12-07T06:44:42;244.77;;;34.75;;
59169;SDS011;52474;52.236;5.114;2023-12-07T06:47:08;221.88;;;33.85;;
59169;SDS011;52474;52.236;5.114;2023-12-07T06:49:34;260.67;;;39.10;;
59169;SDS011;52474;52.236;5.114;2023-12-07T06:52:01;204.70;;;33.92;;
59169;SDS011;52474;52.236;5.114;2023-12-07T06:54:27;208.63;;;34.30;;
59169;SDS011;52474;52.236;5.114;2023-12-07T06:56:52;239.85;;;34.10;;
59169;SDS011;52474;52.236;5.114;2023-12-07T06:59:18;274.73;;;37.40;;
59169;SDS011;52474;52.236;5.114;2023-12-07T07:01:45;281.67;;;38.75;;
59169;SDS011;52474;52.236;5.114;2023-12-07T07:04:11;271.00;;;38.90;;
59169;SDS011;52474;52.236;5.114;2023-12-07T07:06:36;207.90;;;36.05;;
59169;SDS011;52474;52.236;5.114;2023-12-07T07:09:03;322.35;;;47.53;;
59169;SDS011;52474;52.236;5.114;2023-12-07T07:11:30;193.70;;;34.92;;
59169;SDS011;52474;52.236;5.114;2023-12-07T07:13:56;287.98;;;41.38;;
59169;SDS011;52474;52.236;5.114;2023-12-07T07:16:21;268.35;;;42.85;;
59169;SDS011;52474;52.236;5.114;2023-12-07T07:18:47;166.20;;;31.08;;
59169;SDS011;52474;52.236;5.114;2023-12-07T07:21:13;200.63;;;36.03;;
59169;SDS011;52474;52.236;5.114;2023-12-07T07:23:38;253.23;;;36.65;;
59169;SDS011;52474;52.236;5.114;2023-12-07T07:26:04;284.50;;;40.00;;
59169;SDS011;52474;52.236;5.114;2023-12-07T07:28:30;208.27;;;37.17;;
59169;SDS011;52474;52.236;5.114;2023-12-07T07:30:55;163.90;;;30.65;;
59169;SDS011;52474;52.236;5.114;2023-12-07T07:33:21;260.40;;;37.00;;
59169;SDS011;52474;52.236;5.114;2023-12-07T07:35:47;260.70;;;34.45;;
59169;SDS011;52474;52.236;5.114;2023-12-07T07:38:12;288.73;;;42.05;;
59169;SDS011;52474;52.236;5.114;2023-12-07T07:40:39;278.90;;;40.13;;
59169;SDS011;52474;52.236;5.114;2023-12-07T07:43:05;163.15;;;30.67;;
59169;SDS011;52474;52.236;5.114;2023-12-07T07:45:31;234.60;;;35.80;;
59169;SDS011;52474;52.236;5.114;2023-12-07T07:47:56;224.70;;;33.67;;
59169;SDS011;52474;52.236;5.114;2023-12-07T07:50:22;259.35;;;40.25;;
59169;SDS011;52474;52.236;5.114;2023-12-07T07:52:47;297.92;;;40.47;;
59169;SDS011;52474;52.236;5.114;2023-12-07T07:55:13;210.75;;;33.70;;
59169;SDS011;52474;52.236;5.114;2023-12-07T07:57:39;192.82;;;33.85;;
59169;SDS011;52474;52.236;5.114;2023-12-07T08:00:06;207.18;;;30.42;;
59169;SDS011;52474;52.236;5.114;2023-12-07T08:02:33;172.47;;;30.17;;
59169;SDS011;52474;52.236;5.114;2023-12-07T08:05:00;188.77;;;29.85;;
59169;SDS011;52474;52.236;5.114;2023-12-07T08:07:25;210.60;;;33.00;;
59169;SDS011;52474;52.236;5.114;2023-12-07T08:09:51;223.95;;;30.98;;
59169;SDS011;52474;52.236;5.114;2023-12-07T08:12:17;248.80;;;38.00;;
59169;SDS011;52474;52.236;5.114;2023-12-07T08:14:42;273.38;;;39.40;;
59169;SDS011;52474;52.236;5.114;2023-12-07T08:17:09;209.38;;;32.70;;
59169;SDS011;52474;52.236;5.114;2023-12-07T08:19:36;246.50;;;34.38;;
59169;SDS011;52474;52.236;5.114;2023-12-07T08:22:03;174.77;;;29.52;;
59169;SDS011;52474;52.236;5.114;2023-12-07T08:24:28;154.57;;;31.10;;
59169;SDS011;52474;52.236;5.114;2023-12-07T08:26:54;254.43;;;35.45;;
59169;SDS011;52474;52.236;5.114;2023-12-07T08:29:20;225.05;;;32.47;;
59169;SDS011;52474;52.236;5.114;2023-12-07T08:31:46;196.27;;;33.15;;
59169;SDS011;52474;52.236;5.114;2023-12-07T08:34:12;214.70;;;31.98;;
59169;SDS011;52474;52.236;5.114;2023-12-07T08:36:38;210.90;;;28.40;;
59169;SDS011;52474;52.236;5.114;2023-12-07T08:39:04;192.05;;;31.00;;
59169;SDS011;52474;52.236;5.114;2023-12-07T08:41:29;160.00;;;29.33;;
59169;SDS011;52474;52.236;5.114;2023-12-07T08:43:55;198.93;;;30.73;;
59169;SDS011;52474;52.236;5.114;2023-12-07T08:46:20;176.38;;;27.92;;
59169;SDS011;52474;52.236;5.114;2023-12-07T08:48:46;191.32;;;30.75;;
59169;SDS011;52474;52.236;5.114;2023-12-07T08:51:12;191.98;;;31.02;;
59169;SDS011;52474;52.236;5.114;2023-12-07T08:53:38;198.85;;;30.98;;
59169;SDS011;52474;52.236;5.114;2023-12-07T08:56:04;164.48;;;29.98;;
59169;SDS011;52474;52.236;5.114;2023-12-07T08:58:30;161.25;;;29.77;;
59169;SDS011;52474;52.236;5.114;2023-12-07T09:00:56;207.52;;;34.13;;
59169;SDS011;52474;52.236;5.114;2023-12-07T09:03:21;184.85;;;31.65;;
59169;SDS011;52474;52.236;5.114;2023-12-07T09:05:52;108.53;;;24.48;;
59169;SDS011;52474;52.236;5.114;2023-12-07T09:08:19;185.40;;;30.25;;
59169;SDS011;52474;52.236;5.114;2023-12-07T09:10:44;141.63;;;22.48;;
59169;SDS011;52474;52.236;5.114;2023-12-07T09:13:10;147.82;;;26.65;;
59169;SDS011;52474;52.236;5.114;2023-12-07T09:15:36;162.45;;;29.83;;
59169;SDS011;52474;52.236;5.114;2023-12-07T09:18:03;133.98;;;24.92;;
59169;SDS011;52474;52.236;5.114;2023-12-07T09:20:28;140.38;;;25.70;;
59169;SDS011;52474;52.236;5.114;2023-12-07T09:22:56;148.57;;;27.25;;
59169;SDS011;52474;52.236;5.114;2023-12-07T09:25:22;127.78;;;24.25;;
59169;SDS011;52474;52.236;5.114;2023-12-07T09:27:48;140.73;;;26.60;;
59169;SDS011;52474;52.236;5.114;2023-12-07T09:30:14;187.95;;;25.63;;
59169;SDS011;52474;52.236;5.114;2023-12-07T09:32:40;124.68;;;22.45;;
59169;SDS011;52474;52.236;5.114;2023-12-07T09:35:08;142.85;;;25.75;;
59169;SDS011;52474;52.236;5.114;2023-12-07T09:37:44;119.15;;;21.33;;
59169;SDS011;52474;52.236;5.114;2023-12-07T09:40:14;136.30;;;23.50;;
59169;SDS011;52474;52.236;5.114;2023-12-07T09:42:49;139.23;;;22.92;;
59169;SDS011;52474;52.236;5.114;2023-12-07T09:45:16;116.47;;;19.75;;
59169;SDS011;52474;52.236;5.114;2023-12-07T09:47:47;68.60;;;16.08;;
59169;SDS011;52474;52.236;5.114;2023-12-07T09:50:17;72.25;;;17.15;;
59169;SDS011;52474;52.236;5.114;2023-12-07T09:52:44;66.70;;;14.38;;
59169;SDS011;52474;52.236;5.114;2023-12-07T09:55:10;81.40;;;15.40;;
59169;SDS011;52474;52.236;5.114;2023-12-07T09:57:39;98.07;;;16.73;;
59169;SDS011;52474;52.236;5.114;2023-12-07T10:00:05;109.18;;;17.98;;
59169;SDS011;52474;52.236;5.114;2023-12-07T10:02:37;74.82;;;15.98;;
59169;SDS011;52474;52.236;5.114;2023-12-07T10:05:07;129.13;;;20.57;;
59169;SDS011;52474;52.236;5.114;2023-12-07T10:07:42;103.00;;;19.05;;
59169;SDS011;52474;52.236;5.114;2023-12-07T10:10:12;104.22;;;17.58;;
59169;SDS011;52474;52.236;5.114;2023-12-07T10:12:47;92.63;;;15.57;;
59169;SDS011;52474;52.236;5.114;2023-12-07T10:15:24;115.35;;;19.13;;
59169;SDS011;52474;52.236;5.114;2023-12-07T10:17:54;111.60;;;19.20;;
59169;SDS011;52474;52.236;5.114;2023-12-07T10:20:25;104.22;;;18.55;;
59169;SDS011;52474;52.236;5.114;2023-12-07T10:23:02;81.97;;;15.93;;
59169;SDS011;52474;52.236;5.114;2023-12-07T10:25:32;82.60;;;15.85;;
59169;SDS011;52474;52.236;5.114;2023-12-07T10:28:01;79.95;;;18.13;;
59169;SDS011;52474;52.236;5.114;2023-12-07T10:30:29;75.18;;;15.95;;
59169;SDS011;52474;52.236;5.114;2023-12-07T10:32:55;84.07;;;16.83;;
59169;SDS011;52474;52.236;5.114;2023-12-07T10:35:20;76.38;;;17.10;;
59169;SDS011;52474;52.236;5.114;2023-12-07T10:37:46;98.05;;;15.52;;
59169;SDS011;52474;52.236;5.114;2023-12-07T10:40:12;90.68;;;16.02;;
59169;SDS011;52474;52.236;5.114;2023-12-07T10:42:38;91.82;;;17.00;;
59169;SDS011;52474;52.236;5.114;2023-12-07T10:45:07;71.57;;;13.25;;
59169;SDS011;52474;52.236;5.114;2023-12-07T10:47:37;69.97;;;13.25;;
59169;SDS011;52474;52.236;5.114;2023-12-07T10:50:05;87.93;;;16.70;;
59169;SDS011;52474;52.236;5.114;2023-12-07T10:52:48;78.35;;;14.45;;
59169;SDS011;52474;52.236;5.114;2023-12-07T10:55:20;85.03;;;14.07;;
59169;SDS011;52474;52.236;5.114;2023-12-07T10:57:49;74.45;;;15.00;;
59169;SDS011;52474;52.236;5.114;2023-12-07T11:00:18;74.60;;;14.35;;
59169;SDS011;52474;52.236;5.114;2023-12-07T11:02:45;75.10;;;14.27;;
59169;SDS011;52474;52.236;5.114;2023-12-07T11:05:11;81.88;;;15.25;;
59169;SDS011;52474;52.236;5.114;2023-12-07T11:07:42;69.20;;;15.10;;
59169;SDS011;52474;52.236;5.114;2023-12-07T11:10:14;62.70;;;12.80;;
59169;SDS011;52474;52.236;5.114;2023-12-07T11:12:54;53.05;;;13.23;;
59169;SDS011;52474;52.236;5.114;2023-12-07T11:15:32;45.47;;;11.70;;
59169;SDS011;52474;52.236;5.114;2023-12-07T11:17:58;44.63;;;11.18;;
59169;SDS011;52474;52.236;5.114;2023-12-07T11:20:43;56.42;;;14.32;;
59169;SDS011;52474;52.236;5.114;2023-12-07T11:23:11;59.83;;;14.73;;
59169;SDS011;52474;52.236;5.114;2023-12-07T11:25:42;56.13;;;12.93;;
59169;SDS011;52474;52.236;5.114;2023-12-07T11:28:10;65.50;;;12.73;;
59169;SDS011;52474;52.236;5.114;2023-12-07T11:30:37;64.25;;;13.02;;
59169;SDS011;52474;52.236;5.114;2023-12-07T11:33:04;72.00;;;15.45;;
59169;SDS011;52474;52.236;5.114;2023-12-07T11:35:31;61.33;;;13.45;;
59169;SDS011;52474;52.236;5.114;2023-12-07T11:38:01;70.90;;;14.95;;
59169;SDS011;52474;52.236;5.114;2023-12-07T11:40:40;68.75;;;14.63;;
59169;SDS011;52474;52.236;5.114;2023-12-07T11:43:07;62.70;;;15.30;;
59169;SDS011;52474;52.236;5.114;2023-12-07T11:45:51;66.40;;;13.63;;
59169;SDS011;52474;52.236;5.114;2023-12-07T11:48:19;61.15;;;14.35;;
59169;SDS011;52474;52.236;5.114;2023-12-07T11:50:53;71.45;;;15.95;;
59169;SDS011;52474;52.236;5.114;2023-12-07T11:53:36;73.85;;;15.63;;
59169;SDS011;52474;52.236;5.114;2023-12-07T11:56:03;64.05;;;14.50;;
59169;SDS011;52474;52.236;5.114;2023-12-07T11:58:31;82.57;;;15.13;;
59169;SDS011;52474;52.236;5.114;2023-12-07T12:00:58;79.07;;;15.65;;
59169;SDS011;52474;52.236;5.114;2023-12-07T12:03:25;104.07;;;18.27;;
59169;SDS011;52474;52.236;5.114;2023-12-07T12:05:51;93.97;;;15.00;;
59169;SDS011;52474;52.236;5.114;2023-12-07T12:08:17;118.60;;;20.23;;
59169;SDS011;52474;52.236;5.114;2023-12-07T12:10:44;105.22;;;16.77;;
59169;SDS011;52474;52.236;5.114;2023-12-07T12:13:11;100.07;;;18.05;;
59169;SDS011;52474;52.236;5.114;2023-12-07T12:15:37;112.15;;;18.00;;
59169;SDS011;52474;52.236;5.114;2023-12-07T12:18:06;85.95;;;16.02;;
59169;SDS011;52474;52.236;5.114;2023-12-07T12:20:33;89.63;;;18.80;;
59169;SDS011;52474;52.236;5.114;2023-12-07T12:22:59;94.60;;;17.08;;
59169;SDS011;52474;52.236;5.114;2023-12-07T12:25:28;112.57;;;18.25;;
59169;SDS011;52474;52.236;5.114;2023-12-07T12:28:01;114.85;;;17.75;;
59169;SDS011;52474;52.236;5.114;2023-12-07T12:30:28;80.25;;;16.20;;
59169;SDS011;52474;52.236;5.114;2023-12-07T12:32:55;95.70;;;17.27;;
59169;SDS011;52474;52.236;5.114;2023-12-07T12:35:21;98.43;;;18.95;;
59169;SDS011;52474;52.236;5.114;2023-12-07T12:37:47;82.05;;;16.85;;
59169;SDS011;52474;52.236;5.114;2023-12-07T12:40:17;104.50;;;17.98;;
59169;SDS011;52474;52.236;5.114;2023-12-07T12:42:48;106.40;;;18.00;;
59169;SDS011;52474;52.236;5.114;2023-12-07T12:45:16;115.97;;;17.45;;
59169;SDS011;52474;52.236;5.114;2023-12-07T12:47:47;109.20;;;18.08;;
59169;SDS011;52474;52.236;5.114;2023-12-07T12:50:36;107.70;;;18.13;;
59169;SDS011;52474;52.236;5.114;2023-12-07T12:53:06;71.32;;;16.38;;
59169;SDS011;52474;52.236;5.114;2023-12-07T12:55:35;89.78;;;18.88;;
59169;SDS011;52474;52.236;5.114;2023-12-07T12:58:02;107.03;;;18.73;;
59169;SDS011;52474;52.236;5.114;2023-12-07T13:00:30;88.90;;;17.60;;
59169;SDS011;52474;52.236;5.114;2023-12-07T13:02:58;87.28;;;16.77;;
59169;SDS011;52474;52.236;5.114;2023-12-07T13:05:25;110.00;;;18.20;;
59169;SDS011;52474;52.236;5.114;2023-12-07T13:07:51;96.88;;;20.63;;
59169;SDS011;52474;52.236;5.114;2023-12-07T13:10:17;98.75;;;17.92;;
59169;SDS011;52474;52.236;5.114;2023-12-07T13:12:43;108.72;;;20.63;;
59169;SDS011;52474;52.236;5.114;2023-12-07T13:15:10;107.55;;;19.10;;
59169;SDS011;52474;52.236;5.114;2023-12-07T13:17:37;103.60;;;17.90;;
59169;SDS011;52474;52.236;5.114;2023-12-07T13:20:05;101.13;;;18.00;;
59169;SDS011;52474;52.236;5.114;2023-12-07T13:22:38;100.07;;;19.10;;
59169;SDS011;52474;52.236;5.114;2023-12-07T13:25:04;89.30;;;17.88;;
59169;SDS011;52474;52.236;5.114;2023-12-07T13:27:32;86.80;;;18.70;;
59169;SDS011;52474;52.236;5.114;2023-12-07T13:30:00;94.60;;;19.88;;
59169;SDS011;52474;52.236;5.114;2023-12-07T13:32:30;93.32;;;19.40;;
59169;SDS011;52474;52.236;5.114;2023-12-07T13:34:57;102.60;;;19.65;;
59169;SDS011;52474;52.236;5.114;2023-12-07T13:37:23;103.28;;;17.92;;
59169;SDS011;52474;52.236;5.114;2023-12-07T13:39:49;97.32;;;21.23;;
59169;SDS011;52474;52.236;5.114;2023-12-07T13:42:21;104.00;;;19.38;;
59169;SDS011;52474;52.236;5.114;2023-12-07T13:44:47;88.05;;;19.63;;
59169;SDS011;52474;52.236;5.114;2023-12-07T13:47:14;91.65;;;20.80;;
59169;SDS011;52474;52.236;5.114;2023-12-07T13:52:08;82.35;;;20.58;;
59169;SDS011;52474;52.236;5.114;2023-12-07T13:54:36;91.82;;;19.60;;
59169;SDS011;52474;52.236;5.114;2023-12-07T13:57:04;89.93;;;19.25;;
59169;SDS011;52474;52.236;5.114;2023-12-07T13:59:33;83.77;;;18.50;;
59169;SDS011;52474;52.236;5.114;2023-12-07T14:01:58;85.35;;;18.15;;
59169;SDS011;52474;52.236;5.114;2023-12-07T14:04:24;86.35;;;20.30;;
59169;SDS011;52474;52.236;5.114;2023-12-07T14:06:50;93.93;;;21.75;;
59169;SDS011;52474;52.236;5.114;2023-12-07T14:09:16;89.32;;;20.73;;
59169;SDS011;52474;52.236;5.114;2023-12-07T14:11:43;83.88;;;21.20;;
59169;SDS011;52474;52.236;5.114;2023-12-07T14:14:09;78.57;;;19.77;;
59169;SDS011;52474;52.236;5.114;2023-12-07T14:16:34;81.50;;;19.48;;
59169;SDS011;52474;52.236;5.114;2023-12-07T14:19:00;76.93;;;17.67;;
59169;SDS011;52474;52.236;5.114;2023-12-07T14:21:25;84.03;;;21.13;;